Hornstind — LEBD — position and weather

sailwx.info

Track history (hours):
 
Tides and Currents Weather Stations Pressure Air Temp Water Temp Dewpoint Dewpoint Depression Visibility Wind Speed Wind Dir Waves Ship Positions

Hornstind

Last reported at 2018-Jun-18 08:01 UTC. Time now 2018-Jun-18 08:00 UTC.
Position N 65°45' E 012°29'.

Length 70 m.

Type: Ship. MMSI: 257147000.

Date/timePositionNaut miles runAvg speedWind from/ knotsBaromVisibWave heightAir tempDewpointWater temp
2018-Jun-18 08:01N 65°45' E 012°29'2 4.6
2018-Jun-18 07:30N 65°43' E 012°28'611.3
2018-Jun-18 07:00N 65°49' E 012°29'2 3.0
2018-Jun-18 06:29N 65°49' E 012°26'0 0.0
2018-Jun-18 05:59N 65°49' E 012°26'0 0.0
2018-Jun-18 05:29N 65°49' E 012°26'0 0.0
2018-Jun-18 04:59N 65°49' E 012°26'0 0.0
2018-Jun-18 04:29N 65°49' E 012°26'0 0.0
2018-Jun-18 03:59N 65°49' E 012°26'0 0.0
2018-Jun-18 03:29N 65°49' E 012°26'0 0.0
2018-Jun-18 02:59N 65°49' E 012°26'0 0.0
2018-Jun-18 02:29N 65°49' E 012°26'0 0.0
2018-Jun-18 01:59N 65°49' E 012°26'0 0.0
2018-Jun-18 01:29N 65°49' E 012°26'0 0.0
2018-Jun-18 00:59N 65°49' E 012°26'0 0.0
2018-Jun-18 00:29N 65°49' E 012°26'0 0.0
2018-Jun-17 23:59N 65°49' E 012°26'0 0.0
2018-Jun-17 23:29N 65°49' E 012°26'0 0.0
2018-Jun-17 22:59N 65°49' E 012°26'0 0.0
2018-Jun-17 22:29N 65°49' E 012°26'0 0.0
2018-Jun-17 21:59N 65°49' E 012°26'0 0.0
2018-Jun-17 21:29N 65°49' E 012°26'0 0.0
2018-Jun-17 20:59N 65°49' E 012°26'0 0.0
2018-Jun-17 20:29N 65°49' E 012°26'0 0.0
2018-Jun-17 19:59N 65°49' E 012°26'0 0.0
2018-Jun-17 19:29N 65°49' E 012°26'0 0.0
2018-Jun-17 18:59N 65°49' E 012°26'0 0.0
2018-Jun-17 18:30N 65°49' E 012°26'3 5.2
2018-Jun-17 18:00N 65°48' E 012°31'5 9.6
2018-Jun-17 17:29N 65°43' E 012°28'4 7.6
2018-Jun-17 17:00N 65°46' E 012°30'3 6.6
2018-Jun-17 16:30N 65°49' E 012°26'1 1.1
2018-Jun-17 16:00N 65°49' E 012°26'1 1.0
2018-Jun-17 15:29N 65°49' E 012°26'2 3.7
2018-Jun-17 15:00N 65°48' E 012°30'611.2
2018-Jun-17 14:30N 65°43' E 012°27'3 6.2
2018-Jun-17 14:00N 65°46' E 012°30'4 7.4
2018-Jun-17 13:30N 65°49' E 012°26'0 0.1
2018-Jun-17 13:00N 65°49' E 012°26'4 7.8
2018-Jun-17 12:29N 65°45' E 012°29'3 5.5
2018-Jun-17 11:59N 65°43' E 012°28'610.8
2018-Jun-17 11:28N 65°48' E 012°31'2 4.7
2018-Jun-17 11:00N 65°49' E 012°26'0 0.3
2018-Jun-17 10:30N 65°49' E 012°26'4 8.2
2018-Jun-17 10:00N 65°45' E 012°29'1 2.7
2018-Jun-17 09:30N 65°44' E 012°28'5 9.1
2018-Jun-17 09:00N 65°49' E 012°28'1 2.3
2018-Jun-17 08:30N 65°49' E 012°26'0 0.0
2018-Jun-17 08:00N 65°49' E 012°26'0 0.0
2018-Jun-17 07:30N 65°49' E 012°26'0 0.0
2018-Jun-17 07:00N 65°49' E 012°26'0 0.0
2018-Jun-17 06:30N 65°49' E 012°26'0 0.0
2018-Jun-17 06:00N 65°49' E 012°26'0 0.0
2018-Jun-17 05:30N 65°49' E 012°26'0 0.0
2018-Jun-17 05:00N 65°49' E 012°26'0 0.0
2018-Jun-17 04:30N 65°49' E 012°26'0 0.0
2018-Jun-17 04:00N 65°49' E 012°26'0 0.0
2018-Jun-17 03:30N 65°49' E 012°26'0 0.0
2018-Jun-17 03:00N 65°49' E 012°26'0 0.0
2018-Jun-17 02:30N 65°49' E 012°26'0 0.0
2018-Jun-17 02:00N 65°49' E 012°26'0 0.0
2018-Jun-17 01:30N 65°49' E 012°26'0 0.0
2018-Jun-17 00:57N 65°49' E 012°26'0 0.0
2018-Jun-17 00:30N 65°49' E 012°26'0 0.0
2018-Jun-17 00:00N 65°49' E 012°26'0 0.0
2018-Jun-16 23:30N 65°49' E 012°26'0 0.0
2018-Jun-16 23:00N 65°49' E 012°26'0 0.0
2018-Jun-16 22:30N 65°49' E 012°26'0 0.0
2018-Jun-16 22:00N 65°49' E 012°26'0 0.0
2018-Jun-16 21:30N 65°49' E 012°26'0 0.0
2018-Jun-16 21:00N 65°49' E 012°26'0 0.0
2018-Jun-16 20:30N 65°49' E 012°26'0 0.0
2018-Jun-16 20:00N 65°49' E 012°26'0 0.0
2018-Jun-16 19:30N 65°49' E 012°26'0 0.0
2018-Jun-16 19:00N 65°49' E 012°26'0 0.0
2018-Jun-16 18:30N 65°49' E 012°26'0 0.0
2018-Jun-16 18:00N 65°49' E 012°26'0 0.0
2018-Jun-16 17:30N 65°49' E 012°26'0 0.0
2018-Jun-16 17:00N 65°49' E 012°26'0 0.0
2018-Jun-16 16:30N 65°49' E 012°26'0 0.0
2018-Jun-16 16:00N 65°49' E 012°26'0 0.0
2018-Jun-16 15:30N 65°49' E 012°26'2 3.6
2018-Jun-16 15:00N 65°48' E 012°30'511.0
2018-Jun-16 14:30N 65°43' E 012°27'3 5.3
2018-Jun-16 14:00N 65°46' E 012°29'4 7.9
2018-Jun-16 13:30N 65°49' E 012°26'0 0.0
2018-Jun-16 13:00N 65°49' E 012°26'3 5.9
2018-Jun-16 12:30N 65°47' E 012°30'4 8.5
2018-Jun-16 12:00N 65°43' E 012°28'510.8
2018-Jun-16 11:30N 65°48' E 012°31'2 4.8
2018-Jun-16 11:00N 65°49' E 012°26'2 3.6
2018-Jun-16 10:29N 65°48' E 012°30'610.9
2018-Jun-16 09:58N 65°43' E 012°28'2 5.3
2018-Jun-16 09:30N 65°45' E 012°29'3 6.8
2018-Jun-16 09:00N 65°49' E 012°29'1 2.7
2018-Jun-16 08:29N 65°49' E 012°26'0 0.0
2018-Jun-16 07:59N 65°49' E 012°26'0 0.0
2018-Jun-16 07:29N 65°49' E 012°26'0 0.0
2018-Jun-16 06:59N 65°49' E 012°26'0 0.0
2018-Jun-16 06:29N 65°49' E 012°26'0 0.0
2018-Jun-16 05:59N 65°49' E 012°26'0 0.0
2018-Jun-16 05:29N 65°49' E 012°26'0 0.0
2018-Jun-16 04:59N 65°49' E 012°26'0 0.0
2018-Jun-16 04:29N 65°49' E 012°26'0 0.0
2018-Jun-16 03:59N 65°49' E 012°26'0 0.0
2018-Jun-16 03:29N 65°49' E 012°26'0 0.0
2018-Jun-16 02:59N 65°49' E 012°26'0 0.0
2018-Jun-16 02:29N 65°49' E 012°26'0 0.0
2018-Jun-16 01:59N 65°49' E 012°26'0 0.0
2018-Jun-16 01:29N 65°49' E 012°26'0 0.0
2018-Jun-16 00:59N 65°49' E 012°26'0 0.0
2018-Jun-16 00:29N 65°49' E 012°26'0 0.0
2018-Jun-15 23:59N 65°49' E 012°26'0 0.0
2018-Jun-15 23:29N 65°49' E 012°26'0 0.0
2018-Jun-15 22:59N 65°49' E 012°26'0 0.0
2018-Jun-15 22:29N 65°49' E 012°26'0 0.0
2018-Jun-15 21:59N 65°49' E 012°26'0 0.0
2018-Jun-15 21:29N 65°49' E 012°26'0 0.0
2018-Jun-15 20:59N 65°49' E 012°26'0 0.0
2018-Jun-15 20:26N 65°49' E 012°26'0 0.0
2018-Jun-15 19:59N 65°49' E 012°26'0 0.0
2018-Jun-15 19:29N 65°49' E 012°26'0 0.0
2018-Jun-15 18:59N 65°49' E 012°26'0 0.0
2018-Jun-15 18:30N 65°49' E 012°26'3 5.0
2018-Jun-15 18:00N 65°48' E 012°31'510.0
2018-Jun-15 17:30N 65°43' E 012°27'3 6.3
2018-Jun-15 17:00N 65°46' E 012°29'4 7.5
2018-Jun-15 16:30N 65°49' E 012°26'1 1.1
2018-Jun-15 16:00N 65°49' E 012°26'1 1.1
2018-Jun-15 15:30N 65°49' E 012°26'1 2.1
2018-Jun-15 15:00N 65°49' E 012°28'611.9
2018-Jun-15 14:30N 65°43' E 012°28'4 7.5
2018-Jun-15 14:00N 65°46' E 012°30'3 6.5
2018-Jun-15 13:29N 65°49' E 012°26'1 1.6
2018-Jun-15 13:00N 65°49' E 012°27'4 8.0
2018-Jun-15 12:29N 65°45' E 012°28'0 1.0
2018-Jun-15 12:00N 65°44' E 012°28'4 8.7
2018-Jun-15 11:30N 65°48' E 012°30'2 3.6
2018-Jun-15 11:00N 65°49' E 012°26'1 2.8
2018-Jun-15 10:30N 65°49' E 012°29'4 8.4
2018-Jun-15 10:00N 65°44' E 012°28'1 1.9
2018-Jun-15 09:30N 65°45' E 012°29'3 6.8
2018-Jun-15 09:00N 65°49' E 012°28'1 1.2
2018-Jun-15 08:30N 65°48' E 012°30'5 9.1
2018-Jun-15 08:00N 65°44' E 012°28'0 0.4
2018-Jun-15 07:30N 65°44' E 012°28'5 9.9
2018-Jun-15 07:01N 65°49' E 012°30'2 3.3
2018-Jun-15 06:30N 65°49' E 012°26'0 0.0
2018-Jun-15 06:00N 65°49' E 012°26'0 0.0
2018-Jun-15 05:30N 65°49' E 012°26'0 0.0
2018-Jun-15 05:00N 65°49' E 012°26'0 0.0
2018-Jun-15 04:30N 65°49' E 012°26'0 0.0
2018-Jun-15 04:00N 65°49' E 012°26'0 0.0
2018-Jun-15 03:30N 65°49' E 012°26'0 0.0
2018-Jun-15 03:00N 65°49' E 012°26'0 0.0
2018-Jun-15 02:30N 65°49' E 012°26'0 0.0
2018-Jun-15 02:00N 65°49' E 012°26'0 0.0
2018-Jun-15 01:30N 65°49' E 012°26'0 0.0
2018-Jun-15 01:00N 65°49' E 012°26'0 0.0
2018-Jun-15 00:30N 65°49' E 012°26'0 0.0
2018-Jun-15 00:00N 65°49' E 012°26'0 0.0
2018-Jun-14 23:30N 65°49' E 012°26'0 0.0
2018-Jun-14 23:00N 65°49' E 012°26'0 0.0
2018-Jun-14 22:30N 65°49' E 012°26'0 0.0
2018-Jun-14 22:00N 65°49' E 012°26'0 0.0
2018-Jun-14 21:30N 65°49' E 012°26'0 0.0
2018-Jun-14 21:00N 65°49' E 012°26'0 0.0
2018-Jun-14 20:30N 65°49' E 012°26'0 0.0
2018-Jun-14 20:00N 65°49' E 012°26'0 0.0
2018-Jun-14 19:30N 65°49' E 012°26'0 0.0
2018-Jun-14 19:00N 65°49' E 012°26'0 0.0
2018-Jun-14 18:30N 65°49' E 012°26'3 5.9
2018-Jun-14 18:00N 65°47' E 012°30'4 8.8
2018-Jun-14 17:30N 65°43' E 012°28'3 6.7
2018-Jun-14 17:00N 65°46' E 012°29'4 7.0
2018-Jun-14 16:30N 65°49' E 012°26'0 0.0
2018-Jun-14 16:00N 65°49' E 012°26'0 0.0
2018-Jun-14 15:30N 65°49' E 012°26'2 3.6
2018-Jun-14 15:00N 65°48' E 012°30'611.7
2018-Jun-14 14:30N 65°43' E 012°28'4 7.6
2018-Jun-14 14:00N 65°47' E 012°30'3 6.4
2018-Jun-14 13:30N 65°49' E 012°26'0 0.1
2018-Jun-14 12:59N 65°49' E 012°26'4 7.6
2018-Jun-14 12:30N 65°46' E 012°30'3 5.7
2018-Jun-14 12:00N 65°43' E 012°27'510.4
2018-Jun-14 11:29N 65°48' E 012°30'2 3.7
2018-Jun-14 11:00N 65°49' E 012°26'2 3.1
2018-Jun-14 10:30N 65°49' E 012°29'5 9.8
2018-Jun-14 10:00N 65°44' E 012°28'1 1.5
2018-Jun-14 09:31N 65°44' E 012°28'4 8.3
2018-Jun-14 09:00N 65°49' E 012°29'1 1.0
2018-Jun-14 08:30N 65°48' E 012°30'4 7.6
2018-Jun-14 08:00N 65°45' E 012°29'1 2.8
2018-Jun-14 07:30N 65°43' E 012°27'510.4
2018-Jun-14 07:00N 65°49' E 012°29'1 2.8
2018-Jun-14 06:29N 65°49' E 012°26'0 0.0
2018-Jun-14 05:59N 65°49' E 012°26'0 0.0
2018-Jun-14 05:29N 65°49' E 012°26'0 0.0
2018-Jun-14 04:59N 65°49' E 012°26'0 0.0
2018-Jun-14 04:29N 65°49' E 012°26'0 0.0
2018-Jun-14 03:59N 65°49' E 012°26'0 0.0
2018-Jun-14 03:29N 65°49' E 012°26'0 0.0
2018-Jun-14 02:59N 65°49' E 012°26'0 0.0
2018-Jun-14 02:29N 65°49' E 012°26'0 0.0
2018-Jun-14 01:59N 65°49' E 012°26'0 0.0
2018-Jun-14 01:29N 65°49' E 012°26'0 0.0
2018-Jun-14 00:59N 65°49' E 012°26'0 0.0
2018-Jun-14 00:29N 65°49' E 012°26'0 0.0
2018-Jun-13 23:59N 65°49' E 012°26'0 0.0
2018-Jun-13 23:29N 65°49' E 012°26'0 0.0
2018-Jun-13 22:59N 65°49' E 012°26'0 0.0
2018-Jun-13 22:29N 65°49' E 012°26'0 0.0
2018-Jun-13 21:56N 65°49' E 012°26'0 0.0
2018-Jun-13 21:29N 65°49' E 012°26'0 0.0
2018-Jun-13 20:59N 65°49' E 012°26'0 0.0
2018-Jun-13 20:29N 65°49' E 012°26'0 0.0
2018-Jun-13 19:59N 65°49' E 012°26'0 0.0
2018-Jun-13 19:29N 65°49' E 012°26'0 0.0
2018-Jun-13 18:59N 65°49' E 012°26'0 0.0
2018-Jun-13 18:30N 65°49' E 012°26'4 6.9
2018-Jun-13 17:59N 65°46' E 012°30'3 6.9
2018-Jun-13 17:30N 65°43' E 012°28'4 7.6
2018-Jun-13 17:00N 65°47' E 012°30'3 6.5
2018-Jun-13 16:30N 65°49' E 012°26'0 0.0
2018-Jun-13 16:00N 65°49' E 012°26'0 0.0
2018-Jun-13 15:30N 65°49' E 012°26'2 3.7
2018-Jun-13 15:00N 65°48' E 012°30'611.4
2018-Jun-13 14:30N 65°43' E 012°27'3 6.2
2018-Jun-13 14:00N 65°46' E 012°30'4 7.4
2018-Jun-13 13:29N 65°49' E 012°26'0 0.2
2018-Jun-13 13:00N 65°49' E 012°26'3 6.8
2018-Jun-13 12:30N 65°46' E 012°30'3 6.7
2018-Jun-13 12:00N 65°43' E 012°27'611.2
2018-Jun-13 11:30N 65°48' E 012°30'2 3.7
2018-Jun-13 11:00N 65°49' E 012°26'2 3.0
2018-Jun-13 10:30N 65°49' E 012°29'4 9.1
2018-Jun-13 10:00N 65°44' E 012°28'1 1.2
2018-Jun-13 09:30N 65°45' E 012°29'4 7.7
2018-Jun-13 09:00N 65°49' E 012°29'1 1.6
2018-Jun-13 08:30N 65°49' E 012°27'4 7.4
2018-Jun-13 08:00N 65°45' E 012°29'2 3.5
2018-Jun-13 07:30N 65°43' E 012°28'510.1
2018-Jun-13 06:59N 65°49' E 012°29'1 2.6
2018-Jun-13 06:29N 65°49' E 012°26'0 0.0
2018-Jun-13 05:58N 65°49' E 012°26'0 0.0
2018-Jun-13 05:28N 65°49' E 012°26'0 0.0
2018-Jun-13 04:58N 65°49' E 012°26'0 0.0
2018-Jun-13 04:28N 65°49' E 012°26'0 0.0
2018-Jun-13 03:58N 65°49' E 012°26'0 0.0
2018-Jun-13 03:28N 65°49' E 012°26'0 0.0
2018-Jun-13 02:58N 65°49' E 012°26'0 0.0
2018-Jun-13 02:28N 65°49' E 012°26'0 0.0
2018-Jun-13 01:58N 65°49' E 012°26'0 0.0
2018-Jun-13 01:28N 65°49' E 012°26'0 0.0
2018-Jun-13 00:58N 65°49' E 012°26'0 0.0
2018-Jun-13 00:28N 65°49' E 012°26'0 0.0
2018-Jun-12 23:58N 65°49' E 012°26'0 0.0
2018-Jun-12 23:28N 65°49' E 012°26'0 0.0
2018-Jun-12 22:58N 65°49' E 012°26'0 0.0
2018-Jun-12 22:28N 65°49' E 012°26'0 0.0
2018-Jun-12 21:58N 65°49' E 012°26'0 0.0
2018-Jun-12 21:28N 65°49' E 012°26'0 0.0
2018-Jun-12 20:58N 65°49' E 012°26'0 0.0
2018-Jun-12 20:28N 65°49' E 012°26'0 0.0
2018-Jun-12 19:58N 65°49' E 012°26'0 0.0
2018-Jun-12 19:28N 65°49' E 012°26'0 0.0
2018-Jun-12 18:58N 65°49' E 012°26'0 0.0
2018-Jun-12 18:28N 65°49' E 012°26'3 6.2
2018-Jun-12 18:00N 65°47' E 012°30'4 8.8
2018-Jun-12 17:30N 65°43' E 012°28'4 8.0
2018-Jun-12 17:00N 65°47' E 012°30'3 6.2
2018-Jun-12 16:30N 65°49' E 012°26'0 0.0
2018-Jun-12 15:58N 65°49' E 012°26'0 0.8
2018-Jun-12 15:30N 65°49' E 012°26'5 9.0
2018-Jun-12 15:00N 65°46' E 012°33'4 7.2
2018-Jun-12 14:29N 65°43' E 012°28'3 5.7
2018-Jun-12 14:00N 65°45' E 012°29'4 8.3
2018-Jun-12 13:30N 65°49' E 012°26'1 2.6
2018-Jun-12 13:00N 65°49' E 012°29'3 6.3
2018-Jun-12 12:30N 65°45' E 012°29'2 4.3
2018-Jun-12 12:00N 65°43' E 012°28'510.1
2018-Jun-12 11:30N 65°48' E 012°30'2 3.6
2018-Jun-12 11:00N 65°49' E 012°26'2 3.6
2018-Jun-12 10:30N 65°48' E 012°30'5 9.2
2018-Jun-12 10:00N 65°44' E 012°28'1 2.6
2018-Jun-12 09:30N 65°45' E 012°29'3 6.8
2018-Jun-12 09:00N 65°49' E 012°29'0 0.5
2018-Jun-12 08:30N 65°49' E 012°29'4 9.1
2018-Jun-12 08:00N 65°44' E 012°28'0 0.7
2018-Jun-12 07:30N 65°44' E 012°28'5 9.7
2018-Jun-12 07:00N 65°49' E 012°29'1 2.5
2018-Jun-12 06:28N 65°49' E 012°26'0 0.0
2018-Jun-12 05:58N 65°49' E 012°26'0 0.0
2018-Jun-12 05:28N 65°49' E 012°26'0 0.0
2018-Jun-12 04:58N 65°49' E 012°26'0 0.0
2018-Jun-12 04:28N 65°49' E 012°26'0 0.0
2018-Jun-12 03:58N 65°49' E 012°26'0 0.0
2018-Jun-12 03:28N 65°49' E 012°26'0 0.0
2018-Jun-12 02:58N 65°49' E 012°26'0 0.0
2018-Jun-12 02:28N 65°49' E 012°26'0 0.0
2018-Jun-12 01:58N 65°49' E 012°26'0 0.0
2018-Jun-12 01:28N 65°49' E 012°26'0 0.0
2018-Jun-12 00:58N 65°49' E 012°26'0 0.0
2018-Jun-12 00:28N 65°49' E 012°26'0 0.0
2018-Jun-11 23:58N 65°49' E 012°26'0 0.0
2018-Jun-11 23:28N 65°49' E 012°26'0 0.0
2018-Jun-11 22:58N 65°49' E 012°26'0 0.0
2018-Jun-11 22:28N 65°49' E 012°26'0 0.0
2018-Jun-11 21:58N 65°49' E 012°26'0 0.0
2018-Jun-11 21:28N 65°49' E 012°26'0 0.0
2018-Jun-11 20:58N 65°49' E 012°26'0 0.0
2018-Jun-11 20:28N 65°49' E 012°26'0 0.0
2018-Jun-11 19:58N 65°49' E 012°26'0 0.0
2018-Jun-11 19:28N 65°49' E 012°26'0 0.0
2018-Jun-11 18:58N 65°49' E 012°26'0 0.1
2018-Jun-11 18:30N 65°49' E 012°26'3 7.1
2018-Jun-11 18:00N 65°46' E 012°30'3 7.1
2018-Jun-11 17:30N 65°43' E 012°28'4 7.3
2018-Jun-11 16:59N 65°46' E 012°30'3 6.8
2018-Jun-11 16:30N 65°49' E 012°26'0 0.0
2018-Jun-11 16:00N 65°49' E 012°26'1 1.3
2018-Jun-11 15:30N 65°49' E 012°26'4 8.4
2018-Jun-11 15:00N 65°46' E 012°33'4 7.3
2018-Jun-11 14:30N 65°43' E 012°28'5 8.9
2018-Jun-11 13:59N 65°47' E 012°31'3 6.1
2018-Jun-11 13:30N 65°49' E 012°26'0 0.1
2018-Jun-11 13:00N 65°49' E 012°26'4 7.4
2018-Jun-11 12:30N 65°46' E 012°30'3 5.7
2018-Jun-11 12:00N 65°43' E 012°28'511.1
2018-Jun-11 11:30N 65°48' E 012°30'2 3.5
2018-Jun-11 11:00N 65°49' E 012°26'2 3.3
2018-Jun-11 10:30N 65°49' E 012°29'4 8.6
2018-Jun-11 10:00N 65°44' E 012°28'0 0.2
2018-Jun-11 09:30N 65°44' E 012°28'4 8.5
2018-Jun-11 09:00N 65°49' E 012°28'1 1.1
2018-Jun-11 08:30N 65°48' E 012°30'5 9.7
2018-Jun-11 08:00N 65°44' E 012°28'0 0.8
2018-Jun-11 07:30N 65°43' E 012°28'510.7
2018-Jun-11 07:00N 65°49' E 012°29'1 2.6
2018-Jun-11 06:30N 65°49' E 012°26'0 0.0
2018-Jun-11 06:00N 65°49' E 012°26'0 0.0
2018-Jun-11 05:30N 65°49' E 012°26'0 0.0
2018-Jun-11 05:00N 65°49' E 012°26'0 0.0
2018-Jun-11 04:30N 65°49' E 012°26'0 0.0
2018-Jun-11 04:00N 65°49' E 012°26'0 0.0
2018-Jun-11 03:30N 65°49' E 012°26'0 0.0
2018-Jun-11 03:00N 65°49' E 012°26'0 0.0
2018-Jun-11 02:30N 65°49' E 012°26'0 0.0
2018-Jun-11 01:59N 65°49' E 012°26'0 0.0
2018-Jun-11 01:30N 65°49' E 012°26'0 0.0
2018-Jun-11 01:00N 65°49' E 012°26'0 0.0
2018-Jun-11 00:30N 65°49' E 012°26'0 0.0
2018-Jun-11 00:00N 65°49' E 012°26'0 0.0
2018-Jun-10 23:31N 65°49' E 012°26'0 0.0
2018-Jun-10 23:00N 65°49' E 012°26'0 0.0
2018-Jun-10 22:30N 65°49' E 012°26'0 0.0
2018-Jun-10 22:00N 65°49' E 012°26'0 0.0
2018-Jun-10 21:30N 65°49' E 012°26'0 0.0
2018-Jun-10 21:01N 65°49' E 012°26'0 0.0
2018-Jun-10 20:30N 65°49' E 012°26'0 0.0
2018-Jun-10 19:59N 65°49' E 012°26'0 0.0
2018-Jun-10 19:31N 65°49' E 012°26'0 0.0
2018-Jun-10 19:00N 65°49' E 012°26'0 0.0
2018-Jun-10 18:30N 65°49' E 012°26'3 6.0
2018-Jun-10 18:00N 65°47' E 012°30'4 8.6
2018-Jun-10 17:30N 65°43' E 012°28'4 7.9
2018-Jun-10 17:00N 65°47' E 012°30'3 6.5
2018-Jun-10 16:30N 65°49' E 012°26'0 0.9
2018-Jun-10 16:00N 65°49' E 012°26'0 0.9
2018-Jun-10 15:30N 65°49' E 012°26'2 3.7
2018-Jun-10 14:59N 65°48' E 012°30'2 2.2
2018-Jun-10 14:00N 65°46' E 012°30'3 7.0
2018-Jun-10 13:30N 65°49' E 012°26'0 0.1
2018-Jun-10 13:00N 65°49' E 012°26'0 0.0
2018-Jun-10 12:31N 65°49' E 012°26'0 0.0
2018-Jun-10 12:00N 65°49' E 012°26'0 0.0
2018-Jun-10 11:30N 65°49' E 012°26'0 0.0
2018-Jun-10 11:00N 65°49' E 012°26'0 0.0
2018-Jun-10 10:30N 65°49' E 012°26'0 0.0
2018-Jun-10 10:00N 65°49' E 012°26'0 0.0
2018-Jun-10 09:30N 65°49' E 012°26'0 0.0
2018-Jun-10 08:59N 65°49' E 012°26'0 0.0
2018-Jun-10 08:29N 65°49' E 012°26'0 0.0
2018-Jun-10 08:00N 65°49' E 012°26'0 0.0
2018-Jun-10 07:29N 65°49' E 012°26'0 0.0
2018-Jun-10 07:00N 65°49' E 012°26'0 0.0
2018-Jun-10 06:30N 65°49' E 012°26'0 0.0
2018-Jun-10 06:00N 65°49' E 012°26'0 0.0
2018-Jun-10 05:29N 65°49' E 012°26'0 0.0
2018-Jun-10 05:00N 65°49' E 012°26'0 0.0
2018-Jun-10 04:30N 65°49' E 012°26'0 0.0
2018-Jun-10 04:00N 65°49' E 012°26'0 0.0
2018-Jun-10 03:30N 65°49' E 012°26'0 0.0
2018-Jun-10 03:00N 65°49' E 012°26'0 0.0
2018-Jun-10 02:30N 65°49' E 012°26'0 0.0
2018-Jun-10 02:00N 65°49' E 012°26'0 0.0
2018-Jun-10 01:29N 65°49' E 012°26'0 0.0
2018-Jun-10 01:00N 65°49' E 012°26'0 0.0
2018-Jun-10 00:30N 65°49' E 012°26'0 0.0
2018-Jun-10 00:00N 65°49' E 012°26'0 0.0
2018-Jun-09 23:30N 65°49' E 012°26'0 0.0
2018-Jun-09 23:00N 65°49' E 012°26'0 0.0
2018-Jun-09 22:30N 65°49' E 012°26'0 0.0
2018-Jun-09 22:00N 65°49' E 012°26'0 0.0
2018-Jun-09 21:29N 65°49' E 012°26'0 0.0
2018-Jun-09 20:59N 65°49' E 012°26'0 0.0
2018-Jun-09 20:30N 65°49' E 012°26'0 0.0
2018-Jun-09 19:59N 65°49' E 012°26'0 0.0
2018-Jun-09 19:30N 65°49' E 012°26'0 0.0
2018-Jun-09 19:00N 65°49' E 012°26'0 0.0
2018-Jun-09 18:30N 65°49' E 012°26'0 0.0
2018-Jun-09 18:00N 65°49' E 012°26'0 0.0
2018-Jun-09 17:29N 65°49' E 012°26'0 0.0
2018-Jun-09 17:00N 65°49' E 012°26'0 0.0
2018-Jun-09 16:29N 65°49' E 012°26'0 0.0
2018-Jun-09 16:00N 65°49' E 012°26'0 0.0
2018-Jun-09 15:30N 65°49' E 012°26'0 0.0
2018-Jun-09 14:30N 65°49' E 012°26'0 0.0
2018-Jun-09 13:59N 65°49' E 012°26'0 0.0
2018-Jun-09 13:29N 65°49' E 012°26'0 0.2
2018-Jun-09 13:00N 65°49' E 012°26'510.6
2018-Jun-09 12:30N 65°44' E 012°28'2 3.3
2018-Jun-09 12:00N 65°46' E 012°29'4 7.7
2018-Jun-09 11:30N 65°49' E 012°26'0 0.0
2018-Jun-09 11:00N 65°49' E 012°26'0 0.0
2018-Jun-09 10:30N 65°49' E 012°26'0 0.0
2018-Jun-09 10:01N 65°49' E 012°26'0 0.0
2018-Jun-09 09:30N 65°49' E 012°26'0 0.0
2018-Jun-09 09:00N 65°49' E 012°26'0 0.0
2018-Jun-09 08:29N 65°49' E 012°26'0 0.0
2018-Jun-09 07:58N 65°49' E 012°26'0 0.0
2018-Jun-09 07:30N 65°49' E 012°26'0 0.0
2018-Jun-09 07:00N 65°49' E 012°26'0 0.0
2018-Jun-09 06:30N 65°49' E 012°26'0 0.0
2018-Jun-09 06:00N 65°49' E 012°26'0 0.0
2018-Jun-09 05:30N 65°49' E 012°26'0 0.0
2018-Jun-09 05:00N 65°49' E 012°26'0 0.0
2018-Jun-09 04:30N 65°49' E 012°26'0 0.0
2018-Jun-09 04:00N 65°49' E 012°26'0 0.0
2018-Jun-09 03:30N 65°49' E 012°26'0 0.0
2018-Jun-09 03:00N 65°49' E 012°26'0 0.0
2018-Jun-09 02:30N 65°49' E 012°26'0 0.0
2018-Jun-09 02:00N 65°49' E 012°26'0 0.0
2018-Jun-09 01:30N 65°49' E 012°26'0 0.0
2018-Jun-09 01:00N 65°49' E 012°26'0 0.0
2018-Jun-09 00:30N 65°49' E 012°26'0 0.0
2018-Jun-09 00:00N 65°49' E 012°26'0 0.0
2018-Jun-08 23:30N 65°49' E 012°26'0 0.0
2018-Jun-08 23:00N 65°49' E 012°26'0 0.0
2018-Jun-08 22:30N 65°49' E 012°26'0 0.0
2018-Jun-08 22:00N 65°49' E 012°26'0 0.0
2018-Jun-08 21:30N 65°49' E 012°26'0 0.0
2018-Jun-08 21:00N 65°49' E 012°26'0 0.0
2018-Jun-08 20:30N 65°49' E 012°26'0 0.0
2018-Jun-08 20:00N 65°49' E 012°26'0 0.0
2018-Jun-08 19:30N 65°49' E 012°26'0 0.0
2018-Jun-08 18:59N 65°49' E 012°26'0 0.0
2018-Jun-08 18:30N 65°49' E 012°26'3 5.3
2018-Jun-08 18:00N 65°48' E 012°31'5 9.3
2018-Jun-08 17:29N 65°43' E 012°27'4 7.8
2018-Jun-08 17:00N 65°46' E 012°30'3 6.5
2018-Jun-08 16:30N 65°49' E 012°26'0 0.4
2018-Jun-08 16:00N 65°49' E 012°26'0 0.1
2018-Jun-08 15:30N 65°49' E 012°26'4 8.1
2018-Jun-08 15:00N 65°46' E 012°33'4 7.7
2018-Jun-08 14:30N 65°43' E 012°28'3 6.9
2018-Jun-08 14:00N 65°46' E 012°30'4 7.1
2018-Jun-08 13:30N 65°49' E 012°26'0 0.0
2018-Jun-08 12:59N 65°49' E 012°26'0 0.0
2018-Jun-08 12:30N 65°49' E 012°26'0 0.0
2018-Jun-08 12:00N 65°49' E 012°26'0 0.0
2018-Jun-08 11:30N 65°49' E 012°26'0 0.0
2018-Jun-08 11:00N 65°49' E 012°26'0 0.0
2018-Jun-08 10:30N 65°49' E 012°26'0 0.0
2018-Jun-08 10:00N 65°49' E 012°26'0 0.0
2018-Jun-08 09:30N 65°49' E 012°26'0 0.0
2018-Jun-08 09:00N 65°49' E 012°26'1 1.6
2018-Jun-08 08:30N 65°49' E 012°27'  
Track history (hours):
 
Tides and Currents Weather Stations Pressure Air Temp Water Temp Dewpoint Dewpoint Depression Visibility Wind Speed Wind Dir Waves Ship Positions

Hornstind

Last reported at 2018-Jun-18 08:01 UTC. Time now 2018-Jun-18 08:00 UTC.
Position N 65°45' E 012°29'.

Length 70 m.

Type: Ship. MMSI: 257147000.

Date/timePositionNaut miles runAvg speedWind from/ knotsBaromVisibWave heightAir tempDewpointWater temp
2018-Jun-18 08:01N 65°45' E 012°29'2 4.6
2018-Jun-18 07:30N 65°43' E 012°28'611.3
2018-Jun-18 07:00N 65°49' E 012°29'2 3.0
2018-Jun-18 06:29N 65°49' E 012°26'0 0.0
2018-Jun-18 05:59N 65°49' E 012°26'0 0.0
2018-Jun-18 05:29N 65°49' E 012°26'0 0.0
2018-Jun-18 04:59N 65°49' E 012°26'0 0.0
2018-Jun-18 04:29N 65°49' E 012°26'0 0.0
2018-Jun-18 03:59N 65°49' E 012°26'0 0.0
2018-Jun-18 03:29N 65°49' E 012°26'0 0.0
2018-Jun-18 02:59N 65°49' E 012°26'0 0.0
2018-Jun-18 02:29N 65°49' E 012°26'0 0.0
2018-Jun-18 01:59N 65°49' E 012°26'0 0.0
2018-Jun-18 01:29N 65°49' E 012°26'0 0.0
2018-Jun-18 00:59N 65°49' E 012°26'0 0.0
2018-Jun-18 00:29N 65°49' E 012°26'0 0.0
2018-Jun-17 23:59N 65°49' E 012°26'0 0.0
2018-Jun-17 23:29N 65°49' E 012°26'0 0.0
2018-Jun-17 22:59N 65°49' E 012°26'0 0.0
2018-Jun-17 22:29N 65°49' E 012°26'0 0.0
2018-Jun-17 21:59N 65°49' E 012°26'0 0.0
2018-Jun-17 21:29N 65°49' E 012°26'0 0.0
2018-Jun-17 20:59N 65°49' E 012°26'0 0.0
2018-Jun-17 20:29N 65°49' E 012°26'0 0.0
2018-Jun-17 19:59N 65°49' E 012°26'0 0.0
2018-Jun-17 19:29N 65°49' E 012°26'0 0.0
2018-Jun-17 18:59N 65°49' E 012°26'0 0.0
2018-Jun-17 18:30N 65°49' E 012°26'3 5.2
2018-Jun-17 18:00N 65°48' E 012°31'5 9.6
2018-Jun-17 17:29N 65°43' E 012°28'4 7.6
2018-Jun-17 17:00N 65°46' E 012°30'3 6.6
2018-Jun-17 16:30N 65°49' E 012°26'1 1.1
2018-Jun-17 16:00N 65°49' E 012°26'1 1.0
2018-Jun-17 15:29N 65°49' E 012°26'2 3.7
2018-Jun-17 15:00N 65°48' E 012°30'611.2
2018-Jun-17 14:30N 65°43' E 012°27'3 6.2
2018-Jun-17 14:00N 65°46' E 012°30'4 7.4
2018-Jun-17 13:30N 65°49' E 012°26'0 0.1
2018-Jun-17 13:00N 65°49' E 012°26'4 7.8
2018-Jun-17 12:29N 65°45' E 012°29'3 5.5
2018-Jun-17 11:59N 65°43' E 012°28'610.8
2018-Jun-17 11:28N 65°48' E 012°31'2 4.7
2018-Jun-17 11:00N 65°49' E 012°26'0 0.3
2018-Jun-17 10:30N 65°49' E 012°26'4 8.2
2018-Jun-17 10:00N 65°45' E 012°29'1 2.7
2018-Jun-17 09:30N 65°44' E 012°28'5 9.1
2018-Jun-17 09:00N 65°49' E 012°28'1 2.3
2018-Jun-17 08:30N 65°49' E 012°26'0 0.0
2018-Jun-17 08:00N 65°49' E 012°26'0 0.0
2018-Jun-17 07:30N 65°49' E 012°26'0 0.0
2018-Jun-17 07:00N 65°49' E 012°26'0 0.0
2018-Jun-17 06:30N 65°49' E 012°26'0 0.0
2018-Jun-17 06:00N 65°49' E 012°26'0 0.0
2018-Jun-17 05:30N 65°49' E 012°26'0 0.0
2018-Jun-17 05:00N 65°49' E 012°26'0 0.0
2018-Jun-17 04:30N 65°49' E 012°26'0 0.0
2018-Jun-17 04:00N 65°49' E 012°26'0 0.0
2018-Jun-17 03:30N 65°49' E 012°26'0 0.0
2018-Jun-17 03:00N 65°49' E 012°26'0 0.0
2018-Jun-17 02:30N 65°49' E 012°26'0 0.0
2018-Jun-17 02:00N 65°49' E 012°26'0 0.0
2018-Jun-17 01:30N 65°49' E 012°26'0 0.0
2018-Jun-17 00:57N 65°49' E 012°26'0 0.0
2018-Jun-17 00:30N 65°49' E 012°26'0 0.0
2018-Jun-17 00:00N 65°49' E 012°26'0 0.0
2018-Jun-16 23:30N 65°49' E 012°26'0 0.0
2018-Jun-16 23:00N 65°49' E 012°26'0 0.0
2018-Jun-16 22:30N 65°49' E 012°26'0 0.0
2018-Jun-16 22:00N 65°49' E 012°26'0 0.0
2018-Jun-16 21:30N 65°49' E 012°26'0 0.0
2018-Jun-16 21:00N 65°49' E 012°26'0 0.0
2018-Jun-16 20:30N 65°49' E 012°26'0 0.0
2018-Jun-16 20:00N 65°49' E 012°26'0 0.0
2018-Jun-16 19:30N 65°49' E 012°26'0 0.0
2018-Jun-16 19:00N 65°49' E 012°26'0 0.0
2018-Jun-16 18:30N 65°49' E 012°26'0 0.0
2018-Jun-16 18:00N 65°49' E 012°26'0 0.0
2018-Jun-16 17:30N 65°49' E 012°26'0 0.0
2018-Jun-16 17:00N 65°49' E 012°26'0 0.0
2018-Jun-16 16:30N 65°49' E 012°26'0 0.0
2018-Jun-16 16:00N 65°49' E 012°26'0 0.0
2018-Jun-16 15:30N 65°49' E 012°26'2 3.6
2018-Jun-16 15:00N 65°48' E 012°30'511.0
2018-Jun-16 14:30N 65°43' E 012°27'3 5.3
2018-Jun-16 14:00N 65°46' E 012°29'4 7.9
2018-Jun-16 13:30N 65°49' E 012°26'0 0.0
2018-Jun-16 13:00N 65°49' E 012°26'3 5.9
2018-Jun-16 12:30N 65°47' E 012°30'4 8.5
2018-Jun-16 12:00N 65°43' E 012°28'510.8
2018-Jun-16 11:30N 65°48' E 012°31'2 4.8
2018-Jun-16 11:00N 65°49' E 012°26'2 3.6
2018-Jun-16 10:29N 65°48' E 012°30'610.9
2018-Jun-16 09:58N 65°43' E 012°28'2 5.3
2018-Jun-16 09:30N 65°45' E 012°29'3 6.8
2018-Jun-16 09:00N 65°49' E 012°29'1 2.7
2018-Jun-16 08:29N 65°49' E 012°26'0 0.0
2018-Jun-16 07:59N 65°49' E 012°26'0 0.0
2018-Jun-16 07:29N 65°49' E 012°26'0 0.0
2018-Jun-16 06:59N 65°49' E 012°26'0 0.0
2018-Jun-16 06:29N 65°49' E 012°26'0 0.0
2018-Jun-16 05:59N 65°49' E 012°26'0 0.0
2018-Jun-16 05:29N 65°49' E 012°26'0 0.0
2018-Jun-16 04:59N 65°49' E 012°26'0 0.0
2018-Jun-16 04:29N 65°49' E 012°26'0 0.0
2018-Jun-16 03:59N 65°49' E 012°26'0 0.0
2018-Jun-16 03:29N 65°49' E 012°26'0 0.0
2018-Jun-16 02:59N 65°49' E 012°26'0 0.0
2018-Jun-16 02:29N 65°49' E 012°26'0 0.0
2018-Jun-16 01:59N 65°49' E 012°26'0 0.0
2018-Jun-16 01:29N 65°49' E 012°26'0 0.0
2018-Jun-16 00:59N 65°49' E 012°26'0 0.0
2018-Jun-16 00:29N 65°49' E 012°26'0 0.0
2018-Jun-15 23:59N 65°49' E 012°26'0 0.0
2018-Jun-15 23:29N 65°49' E 012°26'0 0.0
2018-Jun-15 22:59N 65°49' E 012°26'0 0.0
2018-Jun-15 22:29N 65°49' E 012°26'0 0.0
2018-Jun-15 21:59N 65°49' E 012°26'0 0.0
2018-Jun-15 21:29N 65°49' E 012°26'0 0.0
2018-Jun-15 20:59N 65°49' E 012°26'0 0.0
2018-Jun-15 20:26N 65°49' E 012°26'0 0.0
2018-Jun-15 19:59N 65°49' E 012°26'0 0.0
2018-Jun-15 19:29N 65°49' E 012°26'0 0.0
2018-Jun-15 18:59N 65°49' E 012°26'0 0.0
2018-Jun-15 18:30N 65°49' E 012°26'3 5.0
2018-Jun-15 18:00N 65°48' E 012°31'510.0
2018-Jun-15 17:30N 65°43' E 012°27'3 6.3
2018-Jun-15 17:00N 65°46' E 012°29'4 7.5
2018-Jun-15 16:30N 65°49' E 012°26'1 1.1
2018-Jun-15 16:00N 65°49' E 012°26'1 1.1
2018-Jun-15 15:30N 65°49' E 012°26'1 2.1
2018-Jun-15 15:00N 65°49' E 012°28'611.9
2018-Jun-15 14:30N 65°43' E 012°28'4 7.5
2018-Jun-15 14:00N 65°46' E 012°30'3 6.5
2018-Jun-15 13:29N 65°49' E 012°26'1 1.6
2018-Jun-15 13:00N 65°49' E 012°27'4 8.0
2018-Jun-15 12:29N 65°45' E 012°28'0 1.0
2018-Jun-15 12:00N 65°44' E 012°28'4 8.7
2018-Jun-15 11:30N 65°48' E 012°30'2 3.6
2018-Jun-15 11:00N 65°49' E 012°26'1 2.8
2018-Jun-15 10:30N 65°49' E 012°29'4 8.4
2018-Jun-15 10:00N 65°44' E 012°28'1 1.9
2018-Jun-15 09:30N 65°45' E 012°29'3 6.8
2018-Jun-15 09:00N 65°49' E 012°28'1 1.2
2018-Jun-15 08:30N 65°48' E 012°30'5 9.1
2018-Jun-15 08:00N 65°44' E 012°28'0 0.4
2018-Jun-15 07:30N 65°44' E 012°28'5 9.9
2018-Jun-15 07:01N 65°49' E 012°30'2 3.3
2018-Jun-15 06:30N 65°49' E 012°26'0 0.0
2018-Jun-15 06:00N 65°49' E 012°26'0 0.0
2018-Jun-15 05:30N 65°49' E 012°26'0 0.0
2018-Jun-15 05:00N 65°49' E 012°26'0 0.0
2018-Jun-15 04:30N 65°49' E 012°26'0 0.0
2018-Jun-15 04:00N 65°49' E 012°26'0 0.0
2018-Jun-15 03:30N 65°49' E 012°26'0 0.0
2018-Jun-15 03:00N 65°49' E 012°26'0 0.0
2018-Jun-15 02:30N 65°49' E 012°26'0 0.0
2018-Jun-15 02:00N 65°49' E 012°26'0 0.0
2018-Jun-15 01:30N 65°49' E 012°26'0 0.0
2018-Jun-15 01:00N 65°49' E 012°26'0 0.0
2018-Jun-15 00:30N 65°49' E 012°26'0 0.0
2018-Jun-15 00:00N 65°49' E 012°26'0 0.0
2018-Jun-14 23:30N 65°49' E 012°26'0 0.0
2018-Jun-14 23:00N 65°49' E 012°26'0 0.0
2018-Jun-14 22:30N 65°49' E 012°26'0 0.0
2018-Jun-14 22:00N 65°49' E 012°26'0 0.0
2018-Jun-14 21:30N 65°49' E 012°26'0 0.0
2018-Jun-14 21:00N 65°49' E 012°26'0 0.0
2018-Jun-14 20:30N 65°49' E 012°26'0 0.0
2018-Jun-14 20:00N 65°49' E 012°26'0 0.0
2018-Jun-14 19:30N 65°49' E 012°26'0 0.0
2018-Jun-14 19:00N 65°49' E 012°26'0 0.0
2018-Jun-14 18:30N 65°49' E 012°26'3 5.9
2018-Jun-14 18:00N 65°47' E 012°30'4 8.8
2018-Jun-14 17:30N 65°43' E 012°28'3 6.7
2018-Jun-14 17:00N 65°46' E 012°29'4 7.0
2018-Jun-14 16:30N 65°49' E 012°26'0 0.0
2018-Jun-14 16:00N 65°49' E 012°26'0 0.0
2018-Jun-14 15:30N 65°49' E 012°26'2 3.6
2018-Jun-14 15:00N 65°48' E 012°30'611.7
2018-Jun-14 14:30N 65°43' E 012°28'4 7.6
2018-Jun-14 14:00N 65°47' E 012°30'3 6.4
2018-Jun-14 13:30N 65°49' E 012°26'0 0.1
2018-Jun-14 12:59N 65°49' E 012°26'4 7.6
2018-Jun-14 12:30N 65°46' E 012°30'3 5.7
2018-Jun-14 12:00N 65°43' E 012°27'510.4
2018-Jun-14 11:29N 65°48' E 012°30'2 3.7
2018-Jun-14 11:00N 65°49' E 012°26'2 3.1
2018-Jun-14 10:30N 65°49' E 012°29'5 9.8
2018-Jun-14 10:00N 65°44' E 012°28'1 1.5
2018-Jun-14 09:31N 65°44' E 012°28'4 8.3
2018-Jun-14 09:00N 65°49' E 012°29'1 1.0
2018-Jun-14 08:30N 65°48' E 012°30'4 7.6
2018-Jun-14 08:00N 65°45' E 012°29'1 2.8
2018-Jun-14 07:30N 65°43' E 012°27'510.4
2018-Jun-14 07:00N 65°49' E 012°29'1 2.8
2018-Jun-14 06:29N 65°49' E 012°26'0 0.0
2018-Jun-14 05:59N 65°49' E 012°26'0 0.0
2018-Jun-14 05:29N 65°49' E 012°26'0 0.0
2018-Jun-14 04:59N 65°49' E 012°26'0 0.0
2018-Jun-14 04:29N 65°49' E 012°26'0 0.0
2018-Jun-14 03:59N 65°49' E 012°26'0 0.0
2018-Jun-14 03:29N 65°49' E 012°26'0 0.0
2018-Jun-14 02:59N 65°49' E 012°26'0 0.0
2018-Jun-14 02:29N 65°49' E 012°26'0 0.0
2018-Jun-14 01:59N 65°49' E 012°26'0 0.0
2018-Jun-14 01:29N 65°49' E 012°26'0 0.0
2018-Jun-14 00:59N 65°49' E 012°26'0 0.0
2018-Jun-14 00:29N 65°49' E 012°26'0 0.0
2018-Jun-13 23:59N 65°49' E 012°26'0 0.0
2018-Jun-13 23:29N 65°49' E 012°26'0 0.0
2018-Jun-13 22:59N 65°49' E 012°26'0 0.0
2018-Jun-13 22:29N 65°49' E 012°26'0 0.0
2018-Jun-13 21:56N 65°49' E 012°26'0 0.0
2018-Jun-13 21:29N 65°49' E 012°26'0 0.0
2018-Jun-13 20:59N 65°49' E 012°26'0 0.0
2018-Jun-13 20:29N 65°49' E 012°26'0 0.0
2018-Jun-13 19:59N 65°49' E 012°26'0 0.0
2018-Jun-13 19:29N 65°49' E 012°26'0 0.0
2018-Jun-13 18:59N 65°49' E 012°26'0 0.0
2018-Jun-13 18:30N 65°49' E 012°26'4 6.9
2018-Jun-13 17:59N 65°46' E 012°30'3 6.9
2018-Jun-13 17:30N 65°43' E 012°28'4 7.6
2018-Jun-13 17:00N 65°47' E 012°30'3 6.5
2018-Jun-13 16:30N 65°49' E 012°26'0 0.0
2018-Jun-13 16:00N 65°49' E 012°26'0 0.0
2018-Jun-13 15:30N 65°49' E 012°26'2 3.7
2018-Jun-13 15:00N 65°48' E 012°30'611.4
2018-Jun-13 14:30N 65°43' E 012°27'3 6.2
2018-Jun-13 14:00N 65°46' E 012°30'4 7.4
2018-Jun-13 13:29N 65°49' E 012°26'0 0.2
2018-Jun-13 13:00N 65°49' E 012°26'3 6.8
2018-Jun-13 12:30N 65°46' E 012°30'3 6.7
2018-Jun-13 12:00N 65°43' E 012°27'611.2
2018-Jun-13 11:30N 65°48' E 012°30'2 3.7
2018-Jun-13 11:00N 65°49' E 012°26'2 3.0
2018-Jun-13 10:30N 65°49' E 012°29'4 9.1
2018-Jun-13 10:00N 65°44' E 012°28'1 1.2
2018-Jun-13 09:30N 65°45' E 012°29'4 7.7
2018-Jun-13 09:00N 65°49' E 012°29'1 1.6
2018-Jun-13 08:30N 65°49' E 012°27'4 7.4
2018-Jun-13 08:00N 65°45' E 012°29'2 3.5
2018-Jun-13 07:30N 65°43' E 012°28'510.1
2018-Jun-13 06:59N 65°49' E 012°29'1 2.6
2018-Jun-13 06:29N 65°49' E 012°26'0 0.0
2018-Jun-13 05:58N 65°49' E 012°26'0 0.0
2018-Jun-13 05:28N 65°49' E 012°26'0 0.0
2018-Jun-13 04:58N 65°49' E 012°26'0 0.0
2018-Jun-13 04:28N 65°49' E 012°26'0 0.0
2018-Jun-13 03:58N 65°49' E 012°26'0 0.0
2018-Jun-13 03:28N 65°49' E 012°26'0 0.0
2018-Jun-13 02:58N 65°49' E 012°26'0 0.0
2018-Jun-13 02:28N 65°49' E 012°26'0 0.0
2018-Jun-13 01:58N 65°49' E 012°26'0 0.0
2018-Jun-13 01:28N 65°49' E 012°26'0 0.0
2018-Jun-13 00:58N 65°49' E 012°26'0 0.0
2018-Jun-13 00:28N 65°49' E 012°26'0 0.0
2018-Jun-12 23:58N 65°49' E 012°26'0 0.0
2018-Jun-12 23:28N 65°49' E 012°26'0 0.0
2018-Jun-12 22:58N 65°49' E 012°26'0 0.0
2018-Jun-12 22:28N 65°49' E 012°26'0 0.0
2018-Jun-12 21:58N 65°49' E 012°26'0 0.0
2018-Jun-12 21:28N 65°49' E 012°26'0 0.0
2018-Jun-12 20:58N 65°49' E 012°26'0 0.0
2018-Jun-12 20:28N 65°49' E 012°26'0 0.0
2018-Jun-12 19:58N 65°49' E 012°26'0 0.0
2018-Jun-12 19:28N 65°49' E 012°26'0 0.0
2018-Jun-12 18:58N 65°49' E 012°26'0 0.0
2018-Jun-12 18:28N 65°49' E 012°26'3 6.2
2018-Jun-12 18:00N 65°47' E 012°30'4 8.8
2018-Jun-12 17:30N 65°43' E 012°28'4 8.0
2018-Jun-12 17:00N 65°47' E 012°30'3 6.2
2018-Jun-12 16:30N 65°49' E 012°26'0 0.0
2018-Jun-12 15:58N 65°49' E 012°26'0 0.8
2018-Jun-12 15:30N 65°49' E 012°26'5 9.0
2018-Jun-12 15:00N 65°46' E 012°33'4 7.2
2018-Jun-12 14:29N 65°43' E 012°28'3 5.7
2018-Jun-12 14:00N 65°45' E 012°29'4 8.3
2018-Jun-12 13:30N 65°49' E 012°26'1 2.6
2018-Jun-12 13:00N 65°49' E 012°29'3 6.3
2018-Jun-12 12:30N 65°45' E 012°29'2 4.3
2018-Jun-12 12:00N 65°43' E 012°28'510.1
2018-Jun-12 11:30N 65°48' E 012°30'2 3.6
2018-Jun-12 11:00N 65°49' E 012°26'2 3.6
2018-Jun-12 10:30N 65°48' E 012°30'5 9.2
2018-Jun-12 10:00N 65°44' E 012°28'1 2.6
2018-Jun-12 09:30N 65°45' E 012°29'3 6.8
2018-Jun-12 09:00N 65°49' E 012°29'0 0.5
2018-Jun-12 08:30N 65°49' E 012°29'4 9.1
2018-Jun-12 08:00N 65°44' E 012°28'0 0.7
2018-Jun-12 07:30N 65°44' E 012°28'5 9.7
2018-Jun-12 07:00N 65°49' E 012°29'1 2.5
2018-Jun-12 06:28N 65°49' E 012°26'0 0.0
2018-Jun-12 05:58N 65°49' E 012°26'0 0.0
2018-Jun-12 05:28N 65°49' E 012°26'0 0.0
2018-Jun-12 04:58N 65°49' E 012°26'0 0.0
2018-Jun-12 04:28N 65°49' E 012°26'0 0.0
2018-Jun-12 03:58N 65°49' E 012°26'0 0.0
2018-Jun-12 03:28N 65°49' E 012°26'0 0.0
2018-Jun-12 02:58N 65°49' E 012°26'0 0.0
2018-Jun-12 02:28N 65°49' E 012°26'0 0.0
2018-Jun-12 01:58N 65°49' E 012°26'0 0.0
2018-Jun-12 01:28N 65°49' E 012°26'0 0.0
2018-Jun-12 00:58N 65°49' E 012°26'0 0.0
2018-Jun-12 00:28N 65°49' E 012°26'0 0.0
2018-Jun-11 23:58N 65°49' E 012°26'0 0.0
2018-Jun-11 23:28N 65°49' E 012°26'0 0.0
2018-Jun-11 22:58N 65°49' E 012°26'0 0.0
2018-Jun-11 22:28N 65°49' E 012°26'0 0.0
2018-Jun-11 21:58N 65°49' E 012°26'0 0.0
2018-Jun-11 21:28N 65°49' E 012°26'0 0.0
2018-Jun-11 20:58N 65°49' E 012°26'0 0.0
2018-Jun-11 20:28N 65°49' E 012°26'0 0.0
2018-Jun-11 19:58N 65°49' E 012°26'0 0.0
2018-Jun-11 19:28N 65°49' E 012°26'0 0.0
2018-Jun-11 18:58N 65°49' E 012°26'0 0.1
2018-Jun-11 18:30N 65°49' E 012°26'3 7.1
2018-Jun-11 18:00N 65°46' E 012°30'3 7.1
2018-Jun-11 17:30N 65°43' E 012°28'4 7.3
2018-Jun-11 16:59N 65°46' E 012°30'3 6.8
2018-Jun-11 16:30N 65°49' E 012°26'0 0.0
2018-Jun-11 16:00N 65°49' E 012°26'1 1.3
2018-Jun-11 15:30N 65°49' E 012°26'4 8.4
2018-Jun-11 15:00N 65°46' E 012°33'4 7.3
2018-Jun-11 14:30N 65°43' E 012°28'5 8.9
2018-Jun-11 13:59N 65°47' E 012°31'3 6.1
2018-Jun-11 13:30N 65°49' E 012°26'0 0.1
2018-Jun-11 13:00N 65°49' E 012°26'4 7.4
2018-Jun-11 12:30N 65°46' E 012°30'3 5.7
2018-Jun-11 12:00N 65°43' E 012°28'511.1
2018-Jun-11 11:30N 65°48' E 012°30'2 3.5
2018-Jun-11 11:00N 65°49' E 012°26'2 3.3
2018-Jun-11 10:30N 65°49' E 012°29'4 8.6
2018-Jun-11 10:00N 65°44' E 012°28'0 0.2
2018-Jun-11 09:30N 65°44' E 012°28'4 8.5
2018-Jun-11 09:00N 65°49' E 012°28'1 1.1
2018-Jun-11 08:30N 65°48' E 012°30'5 9.7
2018-Jun-11 08:00N 65°44' E 012°28'0 0.8
2018-Jun-11 07:30N 65°43' E 012°28'510.7
2018-Jun-11 07:00N 65°49' E 012°29'1 2.6
2018-Jun-11 06:30N 65°49' E 012°26'0 0.0
2018-Jun-11 06:00N 65°49' E 012°26'0 0.0
2018-Jun-11 05:30N 65°49' E 012°26'0 0.0
2018-Jun-11 05:00N 65°49' E 012°26'0 0.0
2018-Jun-11 04:30N 65°49' E 012°26'0 0.0
2018-Jun-11 04:00N 65°49' E 012°26'0 0.0
2018-Jun-11 03:30N 65°49' E 012°26'0 0.0
2018-Jun-11 03:00N 65°49' E 012°26'0 0.0
2018-Jun-11 02:30N 65°49' E 012°26'0 0.0
2018-Jun-11 01:59N 65°49' E 012°26'0 0.0
2018-Jun-11 01:30N 65°49' E 012°26'0 0.0
2018-Jun-11 01:00N 65°49' E 012°26'0 0.0
2018-Jun-11 00:30N 65°49' E 012°26'0 0.0
2018-Jun-11 00:00N 65°49' E 012°26'0 0.0
2018-Jun-10 23:31N 65°49' E 012°26'0 0.0
2018-Jun-10 23:00N 65°49' E 012°26'0 0.0
2018-Jun-10 22:30N 65°49' E 012°26'0 0.0
2018-Jun-10 22:00N 65°49' E 012°26'0 0.0
2018-Jun-10 21:30N 65°49' E 012°26'0 0.0
2018-Jun-10 21:01N 65°49' E 012°26'0 0.0
2018-Jun-10 20:30N 65°49' E 012°26'0 0.0
2018-Jun-10 19:59N 65°49' E 012°26'0 0.0
2018-Jun-10 19:31N 65°49' E 012°26'0 0.0
2018-Jun-10 19:00N 65°49' E 012°26'0 0.0
2018-Jun-10 18:30N 65°49' E 012°26'3 6.0
2018-Jun-10 18:00N 65°47' E 012°30'4 8.6
2018-Jun-10 17:30N 65°43' E 012°28'4 7.9
2018-Jun-10 17:00N 65°47' E 012°30'3 6.5
2018-Jun-10 16:30N 65°49' E 012°26'0 0.9
2018-Jun-10 16:00N 65°49' E 012°26'0 0.9
2018-Jun-10 15:30N 65°49' E 012°26'2 3.7
2018-Jun-10 14:59N 65°48' E 012°30'2 2.2
2018-Jun-10 14:00N 65°46' E 012°30'3 7.0
2018-Jun-10 13:30N 65°49' E 012°26'0 0.1
2018-Jun-10 13:00N 65°49' E 012°26'0 0.0
2018-Jun-10 12:31N 65°49' E 012°26'0 0.0
2018-Jun-10 12:00N 65°49' E 012°26'0 0.0
2018-Jun-10 11:30N 65°49' E 012°26'0 0.0
2018-Jun-10 11:00N 65°49' E 012°26'0 0.0
2018-Jun-10 10:30N 65°49' E 012°26'0 0.0
2018-Jun-10 10:00N 65°49' E 012°26'0 0.0
2018-Jun-10 09:30N 65°49' E 012°26'0 0.0
2018-Jun-10 08:59N 65°49' E 012°26'0 0.0
2018-Jun-10 08:29N 65°49' E 012°26'0 0.0
2018-Jun-10 08:00N 65°49' E 012°26'0 0.0
2018-Jun-10 07:29N 65°49' E 012°26'0 0.0
2018-Jun-10 07:00N 65°49' E 012°26'0 0.0
2018-Jun-10 06:30N 65°49' E 012°26'0 0.0
2018-Jun-10 06:00N 65°49' E 012°26'0 0.0
2018-Jun-10 05:29N 65°49' E 012°26'0 0.0
2018-Jun-10 05:00N 65°49' E 012°26'0 0.0
2018-Jun-10 04:30N 65°49' E 012°26'0 0.0
2018-Jun-10 04:00N 65°49' E 012°26'0 0.0
2018-Jun-10 03:30N 65°49' E 012°26'0 0.0
2018-Jun-10 03:00N 65°49' E 012°26'0 0.0
2018-Jun-10 02:30N 65°49' E 012°26'0 0.0
2018-Jun-10 02:00N 65°49' E 012°26'0 0.0
2018-Jun-10 01:29N 65°49' E 012°26'0 0.0
2018-Jun-10 01:00N 65°49' E 012°26'0 0.0
2018-Jun-10 00:30N 65°49' E 012°26'0 0.0
2018-Jun-10 00:00N 65°49' E 012°26'0 0.0
2018-Jun-09 23:30N 65°49' E 012°26'0 0.0
2018-Jun-09 23:00N 65°49' E 012°26'0 0.0
2018-Jun-09 22:30N 65°49' E 012°26'0 0.0
2018-Jun-09 22:00N 65°49' E 012°26'0 0.0
2018-Jun-09 21:29N 65°49' E 012°26'0 0.0
2018-Jun-09 20:59N 65°49' E 012°26'0 0.0
2018-Jun-09 20:30N 65°49' E 012°26'0 0.0
2018-Jun-09 19:59N 65°49' E 012°26'0 0.0
2018-Jun-09 19:30N 65°49' E 012°26'0 0.0
2018-Jun-09 19:00N 65°49' E 012°26'0 0.0
2018-Jun-09 18:30N 65°49' E 012°26'0 0.0
2018-Jun-09 18:00N 65°49' E 012°26'0 0.0
2018-Jun-09 17:29N 65°49' E 012°26'0 0.0
2018-Jun-09 17:00N 65°49' E 012°26'0 0.0
2018-Jun-09 16:29N 65°49' E 012°26'0 0.0
2018-Jun-09 16:00N 65°49' E 012°26'0 0.0
2018-Jun-09 15:30N 65°49' E 012°26'0 0.0
2018-Jun-09 14:30N 65°49' E 012°26'0 0.0
2018-Jun-09 13:59N 65°49' E 012°26'0 0.0
2018-Jun-09 13:29N 65°49' E 012°26'0 0.2
2018-Jun-09 13:00N 65°49' E 012°26'510.6
2018-Jun-09 12:30N 65°44' E 012°28'2 3.3
2018-Jun-09 12:00N 65°46' E 012°29'4 7.7
2018-Jun-09 11:30N 65°49' E 012°26'0 0.0
2018-Jun-09 11:00N 65°49' E 012°26'0 0.0
2018-Jun-09 10:30N 65°49' E 012°26'0 0.0
2018-Jun-09 10:01N 65°49' E 012°26'0 0.0
2018-Jun-09 09:30N 65°49' E 012°26'0 0.0
2018-Jun-09 09:00N 65°49' E 012°26'0 0.0
2018-Jun-09 08:29N 65°49' E 012°26'0 0.0
2018-Jun-09 07:58N 65°49' E 012°26'0 0.0
2018-Jun-09 07:30N 65°49' E 012°26'0 0.0
2018-Jun-09 07:00N 65°49' E 012°26'0 0.0
2018-Jun-09 06:30N 65°49' E 012°26'0 0.0
2018-Jun-09 06:00N 65°49' E 012°26'0 0.0
2018-Jun-09 05:30N 65°49' E 012°26'0 0.0
2018-Jun-09 05:00N 65°49' E 012°26'0 0.0
2018-Jun-09 04:30N 65°49' E 012°26'0 0.0
2018-Jun-09 04:00N 65°49' E 012°26'0 0.0
2018-Jun-09 03:30N 65°49' E 012°26'0 0.0
2018-Jun-09 03:00N 65°49' E 012°26'0 0.0
2018-Jun-09 02:30N 65°49' E 012°26'0 0.0
2018-Jun-09 02:00N 65°49' E 012°26'0 0.0
2018-Jun-09 01:30N 65°49' E 012°26'0 0.0
2018-Jun-09 01:00N 65°49' E 012°26'0 0.0
2018-Jun-09 00:30N 65°49' E 012°26'0 0.0
2018-Jun-09 00:00N 65°49' E 012°26'0 0.0
2018-Jun-08 23:30N 65°49' E 012°26'0 0.0
2018-Jun-08 23:00N 65°49' E 012°26'0 0.0
2018-Jun-08 22:30N 65°49' E 012°26'0 0.0
2018-Jun-08 22:00N 65°49' E 012°26'0 0.0
2018-Jun-08 21:30N 65°49' E 012°26'0 0.0
2018-Jun-08 21:00N 65°49' E 012°26'0 0.0
2018-Jun-08 20:30N 65°49' E 012°26'0 0.0
2018-Jun-08 20:00N 65°49' E 012°26'0 0.0
2018-Jun-08 19:30N 65°49' E 012°26'0 0.0
2018-Jun-08 18:59N 65°49' E 012°26'0 0.0
2018-Jun-08 18:30N 65°49' E 012°26'3 5.3
2018-Jun-08 18:00N 65°48' E 012°31'5 9.3
2018-Jun-08 17:29N 65°43' E 012°27'4 7.8
2018-Jun-08 17:00N 65°46' E 012°30'3 6.5
2018-Jun-08 16:30N 65°49' E 012°26'0 0.4
2018-Jun-08 16:00N 65°49' E 012°26'0 0.1
2018-Jun-08 15:30N 65°49' E 012°26'4 8.1
2018-Jun-08 15:00N 65°46' E 012°33'4 7.7
2018-Jun-08 14:30N 65°43' E 012°28'3 6.9
2018-Jun-08 14:00N 65°46' E 012°30'4 7.1
2018-Jun-08 13:30N 65°49' E 012°26'0 0.0
2018-Jun-08 12:59N 65°49' E 012°26'0 0.0
2018-Jun-08 12:30N 65°49' E 012°26'0 0.0
2018-Jun-08 12:00N 65°49' E 012°26'0 0.0
2018-Jun-08 11:30N 65°49' E 012°26'0 0.0
2018-Jun-08 11:00N 65°49' E 012°26'0 0.0
2018-Jun-08 10:30N 65°49' E 012°26'0 0.0
2018-Jun-08 10:00N 65°49' E 012°26'0 0.0
2018-Jun-08 09:30N 65°49' E 012°26'0 0.0
2018-Jun-08 09:00N 65°49' E 012°26'1 1.6
2018-Jun-08 08:30N 65°49' E 012°27'  

Dump ship's entire track history